sensor_id;sensor_type;location;lat;lon;timestamp;P1;durP1;ratioP1;P2;durP2;ratioP2
70547;SDS011;58099;43.406;3.698;2022-08-01T00:01:54;6.57;;;4.83;;
70547;SDS011;58099;43.406;3.698;2022-08-01T00:04:19;7.35;;;4.85;;
70547;SDS011;58099;43.406;3.698;2022-08-01T00:06:45;6.87;;;4.57;;
70547;SDS011;58099;43.406;3.698;2022-08-01T00:09:11;6.43;;;4.38;;
70547;SDS011;58099;43.406;3.698;2022-08-01T00:11:37;6.93;;;4.38;;
70547;SDS011;58099;43.406;3.698;2022-08-01T00:14:02;7.32;;;4.35;;
70547;SDS011;58099;43.406;3.698;2022-08-01T00:16:28;6.30;;;3.90;;
70547;SDS011;58099;43.406;3.698;2022-08-01T00:18:54;6.53;;;4.13;;
70547;SDS011;58099;43.406;3.698;2022-08-01T00:21:20;5.93;;;2.92;;
70547;SDS011;58099;43.406;3.698;2022-08-01T00:23:46;5.38;;;2.30;;
70547;SDS011;58099;43.406;3.698;2022-08-01T00:26:12;4.13;;;2.03;;
70547;SDS011;58099;43.406;3.698;2022-08-01T00:28:38;3.80;;;2.13;;
70547;SDS011;58099;43.406;3.698;2022-08-01T00:31:04;4.10;;;2.10;;
70547;SDS011;58099;43.406;3.698;2022-08-01T00:33:30;4.07;;;1.90;;
70547;SDS011;58099;43.406;3.698;2022-08-01T00:35:55;4.15;;;1.52;;
70547;SDS011;58099;43.406;3.698;2022-08-01T00:38:21;4.03;;;1.50;;
70547;SDS011;58099;43.406;3.698;2022-08-01T00:40:47;4.65;;;2.13;;
70547;SDS011;58099;43.406;3.698;2022-08-01T00:43:13;4.53;;;2.23;;
70547;SDS011;58099;43.406;3.698;2022-08-01T00:45:40;4.00;;;1.90;;
70547;SDS011;58099;43.406;3.698;2022-08-01T00:48:06;4.53;;;1.70;;
70547;SDS011;58099;43.406;3.698;2022-08-01T00:50:32;4.55;;;1.65;;
70547;SDS011;58099;43.406;3.698;2022-08-01T00:52:58;3.38;;;1.40;;
70547;SDS011;58099;43.406;3.698;2022-08-01T00:55:25;4.57;;;2.10;;
70547;SDS011;58099;43.406;3.698;2022-08-01T00:57:55;3.70;;;1.90;;
70547;SDS011;58099;43.406;3.698;2022-08-01T01:00:22;3.30;;;1.58;;
70547;SDS011;58099;43.406;3.698;2022-08-01T01:02:48;3.70;;;1.60;;
70547;SDS011;58099;43.406;3.698;2022-08-01T01:05:13;3.88;;;1.80;;
70547;SDS011;58099;43.406;3.698;2022-08-01T01:10:21;4.85;;;1.80;;
70547;SDS011;58099;43.406;3.698;2022-08-01T01:12:59;4.18;;;1.70;;
70547;SDS011;58099;43.406;3.698;2022-08-01T01:15:40;3.53;;;1.73;;
70547;SDS011;58099;43.406;3.698;2022-08-01T01:18:17;4.93;;;2.08;;
70547;SDS011;58099;43.406;3.698;2022-08-01T01:20:53;5.05;;;2.13;;
70547;SDS011;58099;43.406;3.698;2022-08-01T01:24:03;3.78;;;1.90;;
70547;SDS011;58099;43.406;3.698;2022-08-01T01:26:52;4.93;;;2.10;;
70547;SDS011;58099;43.406;3.698;2022-08-01T01:29:28;3.47;;;1.80;;
70547;SDS011;58099;43.406;3.698;2022-08-01T01:32:04;3.78;;;1.95;;
70547;SDS011;58099;43.406;3.698;2022-08-01T01:34:34;4.28;;;2.10;;
70547;SDS011;58099;43.406;3.698;2022-08-01T01:37:02;4.30;;;2.10;;
70547;SDS011;58099;43.406;3.698;2022-08-01T01:39:32;4.47;;;1.90;;
70547;SDS011;58099;43.406;3.698;2022-08-01T01:42:00;4.15;;;1.73;;
70547;SDS011;58099;43.406;3.698;2022-08-01T01:44:27;4.18;;;2.08;;
70547;SDS011;58099;43.406;3.698;2022-08-01T01:46:54;4.00;;;1.88;;
70547;SDS011;58099;43.406;3.698;2022-08-01T01:49:23;3.72;;;2.03;;
70547;SDS011;58099;43.406;3.698;2022-08-01T01:51:51;4.25;;;1.77;;
70547;SDS011;58099;43.406;3.698;2022-08-01T01:54:20;4.65;;;2.40;;
70547;SDS011;58099;43.406;3.698;2022-08-01T01:56:48;4.45;;;2.10;;
70547;SDS011;58099;43.406;3.698;2022-08-01T01:59:19;3.42;;;1.70;;
70547;SDS011;58099;43.406;3.698;2022-08-01T02:01:49;4.15;;;1.95;;
70547;SDS011;58099;43.406;3.698;2022-08-01T02:04:17;4.25;;;2.00;;
70547;SDS011;58099;43.406;3.698;2022-08-01T02:06:46;4.25;;;1.65;;
70547;SDS011;58099;43.406;3.698;2022-08-01T02:09:16;3.53;;;1.92;;
70547;SDS011;58099;43.406;3.698;2022-08-01T02:11:44;3.65;;;1.95;;
70547;SDS011;58099;43.406;3.698;2022-08-01T02:14:11;5.13;;;1.98;;
70547;SDS011;58099;43.406;3.698;2022-08-01T02:16:39;3.28;;;1.67;;
70547;SDS011;58099;43.406;3.698;2022-08-01T02:19:06;3.42;;;1.92;;
70547;SDS011;58099;43.406;3.698;2022-08-01T02:21:34;4.07;;;2.00;;
70547;SDS011;58099;43.406;3.698;2022-08-01T02:24:11;3.60;;;1.88;;
70547;SDS011;58099;43.406;3.698;2022-08-01T02:26:40;4.82;;;2.10;;
70547;SDS011;58099;43.406;3.698;2022-08-01T02:29:10;3.65;;;2.00;;
70547;SDS011;58099;43.406;3.698;2022-08-01T02:31:39;3.58;;;1.77;;
70547;SDS011;58099;43.406;3.698;2022-08-01T02:34:10;4.03;;;1.88;;
70547;SDS011;58099;43.406;3.698;2022-08-01T02:36:40;4.03;;;1.77;;
70547;SDS011;58099;43.406;3.698;2022-08-01T02:39:11;4.63;;;1.70;;
70547;SDS011;58099;43.406;3.698;2022-08-01T02:41:41;4.22;;;1.80;;
70547;SDS011;58099;43.406;3.698;2022-08-01T02:44:10;4.90;;;1.80;;
70547;SDS011;58099;43.406;3.698;2022-08-01T02:46:50;4.40;;;1.77;;
70547;SDS011;58099;43.406;3.698;2022-08-01T02:49:21;3.35;;;1.80;;
70547;SDS011;58099;43.406;3.698;2022-08-01T02:51:49;3.92;;;1.75;;
70547;SDS011;58099;43.406;3.698;2022-08-01T02:54:17;4.32;;;1.80;;
70547;SDS011;58099;43.406;3.698;2022-08-01T02:56:46;4.00;;;1.60;;
70547;SDS011;58099;43.406;3.698;2022-08-01T02:59:14;3.35;;;1.65;;
70547;SDS011;58099;43.406;3.698;2022-08-01T03:01:43;4.47;;;1.70;;
70547;SDS011;58099;43.406;3.698;2022-08-01T03:04:11;4.20;;;2.03;;
70547;SDS011;58099;43.406;3.698;2022-08-01T03:06:38;3.40;;;1.67;;
70547;SDS011;58099;43.406;3.698;2022-08-01T03:09:05;3.90;;;1.50;;
70547;SDS011;58099;43.406;3.698;2022-08-01T03:11:32;3.78;;;1.70;;
70547;SDS011;58099;43.406;3.698;2022-08-01T03:14:01;3.65;;;1.70;;
70547;SDS011;58099;43.406;3.698;2022-08-01T03:16:29;3.90;;;1.80;;
70547;SDS011;58099;43.406;3.698;2022-08-01T03:18:57;4.03;;;1.80;;
70547;SDS011;58099;43.406;3.698;2022-08-01T03:21:26;4.70;;;1.65;;
70547;SDS011;58099;43.406;3.698;2022-08-01T03:23:53;3.95;;;1.40;;
70547;SDS011;58099;43.406;3.698;2022-08-01T03:26:23;4.85;;;1.73;;
70547;SDS011;58099;43.406;3.698;2022-08-01T03:28:52;4.78;;;1.40;;
70547;SDS011;58099;43.406;3.698;2022-08-01T03:31:20;4.13;;;1.55;;
70547;SDS011;58099;43.406;3.698;2022-08-01T03:33:46;3.95;;;1.35;;
70547;SDS011;58099;43.406;3.698;2022-08-01T03:36:11;4.27;;;1.53;;
70547;SDS011;58099;43.406;3.698;2022-08-01T03:38:39;3.13;;;1.27;;
70547;SDS011;58099;43.406;3.698;2022-08-01T03:41:15;3.42;;;1.60;;
70547;SDS011;58099;43.406;3.698;2022-08-01T03:43:52;3.40;;;1.65;;
70547;SDS011;58099;43.406;3.698;2022-08-01T03:46:24;5.15;;;1.73;;
70547;SDS011;58099;43.406;3.698;2022-08-01T03:48:54;4.03;;;1.67;;
70547;SDS011;58099;43.406;3.698;2022-08-01T03:51:23;3.72;;;1.50;;
70547;SDS011;58099;43.406;3.698;2022-08-01T03:53:50;3.00;;;1.45;;
70547;SDS011;58099;43.406;3.698;2022-08-01T03:56:18;4.15;;;1.67;;
70547;SDS011;58099;43.406;3.698;2022-08-01T03:58:46;3.35;;;1.60;;
70547;SDS011;58099;43.406;3.698;2022-08-01T04:01:12;4.25;;;1.88;;
70547;SDS011;58099;43.406;3.698;2022-08-01T04:03:39;4.47;;;1.85;;
70547;SDS011;58099;43.406;3.698;2022-08-01T04:06:07;3.80;;;1.60;;
70547;SDS011;58099;43.406;3.698;2022-08-01T04:08:38;3.85;;;1.52;;
70547;SDS011;58099;43.406;3.698;2022-08-01T04:11:05;3.83;;;1.50;;
70547;SDS011;58099;43.406;3.698;2022-08-01T04:13:32;3.42;;;1.80;;
70547;SDS011;58099;43.406;3.698;2022-08-01T04:15:58;4.85;;;1.90;;
70547;SDS011;58099;43.406;3.698;2022-08-01T04:18:24;3.50;;;1.50;;
70547;SDS011;58099;43.406;3.698;2022-08-01T04:20:49;3.35;;;1.45;;
70547;SDS011;58099;43.406;3.698;2022-08-01T04:23:16;7.40;;;1.97;;
70547;SDS011;58099;43.406;3.698;2022-08-01T04:25:45;4.57;;;1.73;;
70547;SDS011;58099;43.406;3.698;2022-08-01T04:28:13;6.75;;;1.70;;
70547;SDS011;58099;43.406;3.698;2022-08-01T04:30:42;4.53;;;1.60;;
70547;SDS011;58099;43.406;3.698;2022-08-01T04:33:10;4.68;;;1.60;;
70547;SDS011;58099;43.406;3.698;2022-08-01T04:35:41;3.60;;;1.40;;
70547;SDS011;58099;43.406;3.698;2022-08-01T04:38:10;3.72;;;1.55;;
70547;SDS011;58099;43.406;3.698;2022-08-01T04:40:41;4.25;;;1.65;;
70547;SDS011;58099;43.406;3.698;2022-08-01T04:43:10;3.67;;;1.38;;
70547;SDS011;58099;43.406;3.698;2022-08-01T04:45:36;3.70;;;1.80;;
70547;SDS011;58099;43.406;3.698;2022-08-01T04:48:04;3.80;;;1.57;;
70547;SDS011;58099;43.406;3.698;2022-08-01T04:50:31;4.47;;;1.60;;
70547;SDS011;58099;43.406;3.698;2022-08-01T04:52:57;5.03;;;1.58;;
70547;SDS011;58099;43.406;3.698;2022-08-01T04:55:23;4.67;;;1.53;;
70547;SDS011;58099;43.406;3.698;2022-08-01T04:57:49;3.40;;;1.42;;
70547;SDS011;58099;43.406;3.698;2022-08-01T05:00:14;3.90;;;1.63;;
70547;SDS011;58099;43.406;3.698;2022-08-01T05:02:43;4.15;;;1.45;;
70547;SDS011;58099;43.406;3.698;2022-08-01T05:05:10;3.80;;;1.60;;
70547;SDS011;58099;43.406;3.698;2022-08-01T05:07:35;4.72;;;1.88;;
70547;SDS011;58099;43.406;3.698;2022-08-01T05:10:04;4.03;;;1.80;;
70547;SDS011;58099;43.406;3.698;2022-08-01T05:12:30;4.47;;;1.70;;
70547;SDS011;58099;43.406;3.698;2022-08-01T05:14:57;4.88;;;1.70;;
70547;SDS011;58099;43.406;3.698;2022-08-01T05:17:26;3.78;;;1.50;;
70547;SDS011;58099;43.406;3.698;2022-08-01T05:19:52;4.37;;;1.70;;
70547;SDS011;58099;43.406;3.698;2022-08-01T05:22:18;4.32;;;1.70;;
70547;SDS011;58099;43.406;3.698;2022-08-01T05:24:44;4.93;;;1.75;;
70547;SDS011;58099;43.406;3.698;2022-08-01T05:27:10;4.10;;;1.65;;
70547;SDS011;58099;43.406;3.698;2022-08-01T05:29:36;4.10;;;1.85;;
70547;SDS011;58099;43.406;3.698;2022-08-01T05:32:02;5.20;;;2.13;;
70547;SDS011;58099;43.406;3.698;2022-08-01T05:34:28;4.10;;;1.70;;
70547;SDS011;58099;43.406;3.698;2022-08-01T05:36:54;3.78;;;1.73;;
70547;SDS011;58099;43.406;3.698;2022-08-01T05:39:20;4.80;;;1.50;;
70547;SDS011;58099;43.406;3.698;2022-08-01T05:41:45;3.95;;;1.55;;
70547;SDS011;58099;43.406;3.698;2022-08-01T05:44:11;6.20;;;2.03;;
70547;SDS011;58099;43.406;3.698;2022-08-01T05:46:37;5.35;;;1.80;;
70547;SDS011;58099;43.406;3.698;2022-08-01T05:49:03;5.15;;;1.70;;
70547;SDS011;58099;43.406;3.698;2022-08-01T05:51:30;4.85;;;1.90;;
70547;SDS011;58099;43.406;3.698;2022-08-01T05:53:56;5.90;;;2.35;;
70547;SDS011;58099;43.406;3.698;2022-08-01T05:56:22;4.65;;;2.03;;
70547;SDS011;58099;43.406;3.698;2022-08-01T05:58:48;5.97;;;1.87;;
70547;SDS011;58099;43.406;3.698;2022-08-01T06:01:15;4.28;;;1.67;;
70547;SDS011;58099;43.406;3.698;2022-08-01T06:03:42;3.45;;;1.75;;
70547;SDS011;58099;43.406;3.698;2022-08-01T06:06:07;4.90;;;1.50;;
70547;SDS011;58099;43.406;3.698;2022-08-01T06:08:33;4.60;;;1.80;;
70547;SDS011;58099;43.406;3.698;2022-08-01T06:10:59;5.00;;;2.05;;
70547;SDS011;58099;43.406;3.698;2022-08-01T06:13:25;4.83;;;2.27;;
70547;SDS011;58099;43.406;3.698;2022-08-01T06:15:51;4.57;;;2.08;;
70547;SDS011;58099;43.406;3.698;2022-08-01T06:18:17;4.85;;;2.55;;
70547;SDS011;58099;43.406;3.698;2022-08-01T06:20:43;4.17;;;2.30;;
70547;SDS011;58099;43.406;3.698;2022-08-01T06:23:09;4.85;;;2.22;;
70547;SDS011;58099;43.406;3.698;2022-08-01T06:25:35;5.15;;;2.20;;
70547;SDS011;58099;43.406;3.698;2022-08-01T06:28:01;7.63;;;2.60;;
70547;SDS011;58099;43.406;3.698;2022-08-01T06:30:27;4.70;;;2.20;;
70547;SDS011;58099;43.406;3.698;2022-08-01T06:32:53;6.65;;;2.08;;
70547;SDS011;58099;43.406;3.698;2022-08-01T06:35:20;4.65;;;1.85;;
70547;SDS011;58099;43.406;3.698;2022-08-01T06:37:46;4.72;;;2.00;;
70547;SDS011;58099;43.406;3.698;2022-08-01T06:40:13;5.07;;;2.28;;
70547;SDS011;58099;43.406;3.698;2022-08-01T06:42:39;5.85;;;2.42;;
70547;SDS011;58099;43.406;3.698;2022-08-01T06:45:06;4.47;;;2.53;;
70547;SDS011;58099;43.406;3.698;2022-08-01T06:47:33;6.87;;;2.70;;
70547;SDS011;58099;43.406;3.698;2022-08-01T06:49:59;5.75;;;2.47;;
70547;SDS011;58099;43.406;3.698;2022-08-01T06:52:25;5.00;;;2.40;;
70547;SDS011;58099;43.406;3.698;2022-08-01T06:54:51;4.27;;;2.03;;
70547;SDS011;58099;43.406;3.698;2022-08-01T06:57:18;4.82;;;2.50;;
70547;SDS011;58099;43.406;3.698;2022-08-01T06:59:44;5.43;;;2.22;;
70547;SDS011;58099;43.406;3.698;2022-08-01T07:02:09;5.73;;;2.30;;
70547;SDS011;58099;43.406;3.698;2022-08-01T07:04:35;4.55;;;2.20;;
70547;SDS011;58099;43.406;3.698;2022-08-01T07:07:01;5.00;;;2.20;;
70547;SDS011;58099;43.406;3.698;2022-08-01T07:09:27;4.30;;;2.42;;
70547;SDS011;58099;43.406;3.698;2022-08-01T07:11:53;6.65;;;2.67;;
70547;SDS011;58099;43.406;3.698;2022-08-01T07:14:20;4.88;;;2.50;;
70547;SDS011;58099;43.406;3.698;2022-08-01T07:16:46;4.23;;;2.53;;
70547;SDS011;58099;43.406;3.698;2022-08-01T07:19:12;8.82;;;2.47;;
70547;SDS011;58099;43.406;3.698;2022-08-01T07:21:38;4.10;;;2.65;;
70547;SDS011;58099;43.406;3.698;2022-08-01T07:24:05;4.33;;;2.63;;
70547;SDS011;58099;43.406;3.698;2022-08-01T07:26:31;4.88;;;2.60;;
70547;SDS011;58099;43.406;3.698;2022-08-01T07:28:57;5.57;;;3.00;;
70547;SDS011;58099;43.406;3.698;2022-08-01T07:31:23;4.87;;;2.80;;
70547;SDS011;58099;43.406;3.698;2022-08-01T07:33:49;5.80;;;2.92;;
70547;SDS011;58099;43.406;3.698;2022-08-01T07:36:16;4.90;;;2.25;;
70547;SDS011;58099;43.406;3.698;2022-08-01T07:38:42;6.28;;;2.92;;
70547;SDS011;58099;43.406;3.698;2022-08-01T07:41:08;4.33;;;2.50;;
70547;SDS011;58099;43.406;3.698;2022-08-01T07:43:34;5.57;;;2.40;;
70547;SDS011;58099;43.406;3.698;2022-08-01T07:46:01;5.07;;;2.78;;
70547;SDS011;58099;43.406;3.698;2022-08-01T07:48:27;4.72;;;2.90;;
70547;SDS011;58099;43.406;3.698;2022-08-01T07:50:53;5.45;;;2.92;;
70547;SDS011;58099;43.406;3.698;2022-08-01T07:53:19;6.15;;;3.15;;
70547;SDS011;58099;43.406;3.698;2022-08-01T07:55:45;5.70;;;3.20;;
70547;SDS011;58099;43.406;3.698;2022-08-01T07:58:11;5.13;;;2.80;;
70547;SDS011;58099;43.406;3.698;2022-08-01T08:00:37;5.68;;;3.03;;
70547;SDS011;58099;43.406;3.698;2022-08-01T08:03:02;6.03;;;2.43;;
70547;SDS011;58099;43.406;3.698;2022-08-01T08:05:28;4.40;;;2.92;;
70547;SDS011;58099;43.406;3.698;2022-08-01T08:07:54;3.90;;;2.70;;
70547;SDS011;58099;43.406;3.698;2022-08-01T08:10:20;5.60;;;2.50;;
70547;SDS011;58099;43.406;3.698;2022-08-01T08:12:46;5.28;;;2.80;;
70547;SDS011;58099;43.406;3.698;2022-08-01T08:15:13;4.78;;;2.75;;
70547;SDS011;58099;43.406;3.698;2022-08-01T08:17:39;5.47;;;3.30;;
70547;SDS011;58099;43.406;3.698;2022-08-01T08:20:05;4.80;;;2.80;;
70547;SDS011;58099;43.406;3.698;2022-08-01T08:22:32;6.47;;;3.03;;
70547;SDS011;58099;43.406;3.698;2022-08-01T08:24:59;4.85;;;2.80;;
70547;SDS011;58099;43.406;3.698;2022-08-01T08:27:25;5.28;;;2.95;;
70547;SDS011;58099;43.406;3.698;2022-08-01T08:29:50;6.03;;;2.38;;
70547;SDS011;58099;43.406;3.698;2022-08-01T08:32:17;4.13;;;2.70;;
70547;SDS011;58099;43.406;3.698;2022-08-01T08:34:42;4.90;;;2.57;;
70547;SDS011;58099;43.406;3.698;2022-08-01T08:37:08;6.22;;;3.13;;
70547;SDS011;58099;43.406;3.698;2022-08-01T08:39:34;4.78;;;2.42;;
70547;SDS011;58099;43.406;3.698;2022-08-01T08:42:00;4.93;;;2.50;;
70547;SDS011;58099;43.406;3.698;2022-08-01T08:44:27;4.30;;;2.35;;
70547;SDS011;58099;43.406;3.698;2022-08-01T08:46:52;4.57;;;2.25;;
70547;SDS011;58099;43.406;3.698;2022-08-01T08:49:25;4.70;;;2.07;;
70547;SDS011;58099;43.406;3.698;2022-08-01T08:51:53;4.35;;;2.25;;
70547;SDS011;58099;43.406;3.698;2022-08-01T08:54:22;4.78;;;3.10;;
70547;SDS011;58099;43.406;3.698;2022-08-01T08:56:53;4.05;;;2.42;;
70547;SDS011;58099;43.406;3.698;2022-08-01T08:59:20;5.72;;;2.78;;
70547;SDS011;58099;43.406;3.698;2022-08-01T09:01:46;5.00;;;2.33;;
70547;SDS011;58099;43.406;3.698;2022-08-01T09:04:12;5.03;;;2.33;;
70547;SDS011;58099;43.406;3.698;2022-08-01T09:06:39;4.28;;;2.45;;
70547;SDS011;58099;43.406;3.698;2022-08-01T09:09:06;4.32;;;2.80;;
70547;SDS011;58099;43.406;3.698;2022-08-01T09:11:33;3.92;;;2.22;;
70547;SDS011;58099;43.406;3.698;2022-08-01T09:16:31;5.03;;;3.35;;
70547;SDS011;58099;43.406;3.698;2022-08-01T09:19:59;3.90;;;2.58;;
70547;SDS011;58099;43.406;3.698;2022-08-01T09:22:02;4.47;;;2.72;;
70547;SDS011;58099;43.406;3.698;2022-08-01T09:24:30;4.07;;;2.83;;
70547;SDS011;58099;43.406;3.698;2022-08-01T09:26:56;5.63;;;2.88;;
70547;SDS011;58099;43.406;3.698;2022-08-01T09:29:24;6.75;;;3.17;;
70547;SDS011;58099;43.406;3.698;2022-08-01T09:31:55;5.65;;;3.28;;
70547;SDS011;58099;43.406;3.698;2022-08-01T09:34:25;6.70;;;3.55;;
70547;SDS011;58099;43.406;3.698;2022-08-01T09:36:55;7.22;;;3.53;;
70547;SDS011;58099;43.406;3.698;2022-08-01T09:39:24;6.95;;;3.03;;
70547;SDS011;58099;43.406;3.698;2022-08-01T09:42:00;6.53;;;2.88;;
70547;SDS011;58099;43.406;3.698;2022-08-01T09:44:43;7.50;;;3.60;;
70547;SDS011;58099;43.406;3.698;2022-08-01T09:47:09;5.45;;;3.45;;
70547;SDS011;58099;43.406;3.698;2022-08-01T09:49:37;5.43;;;3.00;;
70547;SDS011;58099;43.406;3.698;2022-08-01T09:54:41;6.80;;;3.03;;
70547;SDS011;58099;43.406;3.698;2022-08-01T09:57:09;6.00;;;3.20;;
70547;SDS011;58099;43.406;3.698;2022-08-01T09:59:37;6.47;;;3.22;;
70547;SDS011;58099;43.406;3.698;2022-08-01T10:02:06;6.35;;;3.63;;
70547;SDS011;58099;43.406;3.698;2022-08-01T10:04:45;8.35;;;3.63;;
70547;SDS011;58099;43.406;3.698;2022-08-01T10:07:12;7.05;;;3.60;;
70547;SDS011;58099;43.406;3.698;2022-08-01T10:09:41;6.65;;;3.40;;
70547;SDS011;58099;43.406;3.698;2022-08-01T10:12:08;6.30;;;3.50;;
70547;SDS011;58099;43.406;3.698;2022-08-01T10:14:35;6.72;;;3.65;;
70547;SDS011;58099;43.406;3.698;2022-08-01T10:17:02;8.25;;;4.55;;
70547;SDS011;58099;43.406;3.698;2022-08-01T10:19:31;7.35;;;4.25;;
70547;SDS011;58099;43.406;3.698;2022-08-01T10:21:58;7.32;;;3.72;;
70547;SDS011;58099;43.406;3.698;2022-08-01T10:24:26;5.78;;;2.95;;
70547;SDS011;58099;43.406;3.698;2022-08-01T10:26:58;5.63;;;3.20;;
70547;SDS011;58099;43.406;3.698;2022-08-01T10:29:28;7.18;;;3.03;;
70547;SDS011;58099;43.406;3.698;2022-08-01T10:32:01;5.43;;;3.33;;
70547;SDS011;58099;43.406;3.698;2022-08-01T10:34:29;7.20;;;3.35;;
70547;SDS011;58099;43.406;3.698;2022-08-01T10:36:55;7.00;;;3.28;;
70547;SDS011;58099;43.406;3.698;2022-08-01T10:39:21;6.25;;;3.65;;
70547;SDS011;58099;43.406;3.698;2022-08-01T10:41:47;6.18;;;3.55;;
70547;SDS011;58099;43.406;3.698;2022-08-01T10:44:13;6.53;;;3.75;;
70547;SDS011;58099;43.406;3.698;2022-08-01T10:46:43;5.80;;;3.33;;
70547;SDS011;58099;43.406;3.698;2022-08-01T10:49:15;4.50;;;3.13;;
70547;SDS011;58099;43.406;3.698;2022-08-01T10:51:44;4.22;;;2.85;;
70547;SDS011;58099;43.406;3.698;2022-08-01T10:54:11;6.05;;;3.03;;
70547;SDS011;58099;43.406;3.698;2022-08-01T10:56:38;6.03;;;2.85;;
70547;SDS011;58099;43.406;3.698;2022-08-01T10:59:08;4.68;;;3.03;;
70547;SDS011;58099;43.406;3.698;2022-08-01T11:01:34;6.03;;;2.95;;
70547;SDS011;58099;43.406;3.698;2022-08-01T11:08:58;5.95;;;3.08;;
70547;SDS011;58099;43.406;3.698;2022-08-01T11:11:25;7.75;;;4.32;;
70547;SDS011;58099;43.406;3.698;2022-08-01T11:16:26;9.20;;;5.20;;
70547;SDS011;58099;43.406;3.698;2022-08-01T11:18:53;6.90;;;4.85;;
70547;SDS011;58099;43.406;3.698;2022-08-01T11:21:19;6.30;;;4.10;;
70547;SDS011;58099;43.406;3.698;2022-08-01T11:23:49;7.32;;;3.30;;
70547;SDS011;58099;43.406;3.698;2022-08-01T11:26:18;5.93;;;2.90;;
70547;SDS011;58099;43.406;3.698;2022-08-01T11:28:45;5.07;;;2.72;;
70547;SDS011;58099;43.406;3.698;2022-08-01T11:31:32;6.00;;;3.33;;
70547;SDS011;58099;43.406;3.698;2022-08-01T11:33:59;6.63;;;3.03;;
70547;SDS011;58099;43.406;3.698;2022-08-01T11:36:25;7.30;;;3.88;;
70547;SDS011;58099;43.406;3.698;2022-08-01T11:41:23;7.55;;;3.60;;
70547;SDS011;58099;43.406;3.698;2022-08-01T11:44:00;8.00;;;3.67;;
70547;SDS011;58099;43.406;3.698;2022-08-01T11:57:02;7.60;;;3.90;;
70547;SDS011;58099;43.406;3.698;2022-08-01T11:59:35;5.35;;;4.00;;
70547;SDS011;58099;43.406;3.698;2022-08-01T12:02:14;6.50;;;4.72;;
70547;SDS011;58099;43.406;3.698;2022-08-01T12:07:19;6.13;;;3.83;;
70547;SDS011;58099;43.406;3.698;2022-08-01T12:09:46;6.15;;;4.05;;
70547;SDS011;58099;43.406;3.698;2022-08-01T12:12:16;5.75;;;3.95;;
70547;SDS011;58099;43.406;3.698;2022-08-01T12:14:43;6.55;;;4.22;;
70547;SDS011;58099;43.406;3.698;2022-08-01T12:17:10;7.18;;;3.45;;
70547;SDS011;58099;43.406;3.698;2022-08-01T12:19:35;8.40;;;3.53;;
70547;SDS011;58099;43.406;3.698;2022-08-01T12:22:14;8.13;;;3.95;;
70547;SDS011;58099;43.406;3.698;2022-08-01T12:24:40;5.53;;;3.80;;
70547;SDS011;58099;43.406;3.698;2022-08-01T12:27:08;6.97;;;3.72;;
70547;SDS011;58099;43.406;3.698;2022-08-01T12:32:01;6.30;;;3.95;;
70547;SDS011;58099;43.406;3.698;2022-08-01T12:34:28;8.00;;;4.00;;
70547;SDS011;58099;43.406;3.698;2022-08-01T12:36:58;6.75;;;3.70;;
70547;SDS011;58099;43.406;3.698;2022-08-01T12:39:31;6.53;;;3.90;;
70547;SDS011;58099;43.406;3.698;2022-08-01T12:41:58;5.73;;;3.90;;
70547;SDS011;58099;43.406;3.698;2022-08-01T12:44:25;7.00;;;4.13;;
70547;SDS011;58099;43.406;3.698;2022-08-01T12:46:52;6.18;;;3.72;;
70547;SDS011;58099;43.406;3.698;2022-08-01T12:49:18;5.07;;;3.50;;
70547;SDS011;58099;43.406;3.698;2022-08-01T12:51:44;5.25;;;3.90;;
70547;SDS011;58099;43.406;3.698;2022-08-01T12:54:10;7.18;;;3.67;;
70547;SDS011;58099;43.406;3.698;2022-08-01T12:56:36;5.50;;;3.70;;
70547;SDS011;58099;43.406;3.698;2022-08-01T12:59:02;6.83;;;3.93;;
70547;SDS011;58099;43.406;3.698;2022-08-01T13:01:52;7.22;;;4.03;;
70547;SDS011;58099;43.406;3.698;2022-08-01T13:04:20;6.70;;;3.90;;
70547;SDS011;58099;43.406;3.698;2022-08-01T13:06:46;6.05;;;3.83;;
70547;SDS011;58099;43.406;3.698;2022-08-01T13:09:13;6.50;;;3.83;;
70547;SDS011;58099;43.406;3.698;2022-08-01T13:11:40;5.20;;;3.25;;
70547;SDS011;58099;43.406;3.698;2022-08-01T13:14:06;6.38;;;4.00;;
70547;SDS011;58099;43.406;3.698;2022-08-01T13:16:32;8.10;;;4.40;;
70547;SDS011;58099;43.406;3.698;2022-08-01T13:19:09;7.07;;;3.97;;
70547;SDS011;58099;43.406;3.698;2022-08-01T13:21:35;5.70;;;4.15;;
70547;SDS011;58099;43.406;3.698;2022-08-01T13:24:04;5.87;;;3.97;;
70547;SDS011;58099;43.406;3.698;2022-08-01T13:29:14;6.85;;;3.80;;
70547;SDS011;58099;43.406;3.698;2022-08-01T13:31:42;5.85;;;4.15;;
70547;SDS011;58099;43.406;3.698;2022-08-01T13:34:09;6.07;;;3.90;;
70547;SDS011;58099;43.406;3.698;2022-08-01T13:36:35;5.50;;;3.37;;
70547;SDS011;58099;43.406;3.698;2022-08-01T13:39:01;5.32;;;3.42;;
70547;SDS011;58099;43.406;3.698;2022-08-01T13:41:46;5.57;;;3.53;;
70547;SDS011;58099;43.406;3.698;2022-08-01T13:44:12;6.20;;;3.80;;
70547;SDS011;58099;43.406;3.698;2022-08-01T13:46:39;6.70;;;4.00;;
70547;SDS011;58099;43.406;3.698;2022-08-01T13:49:06;7.30;;;3.80;;
70547;SDS011;58099;43.406;3.698;2022-08-01T13:51:33;6.38;;;3.70;;
70547;SDS011;58099;43.406;3.698;2022-08-01T13:53:59;5.40;;;3.67;;
70547;SDS011;58099;43.406;3.698;2022-08-01T13:56:26;7.22;;;3.47;;
70547;SDS011;58099;43.406;3.698;2022-08-01T13:58:53;6.43;;;4.10;;
70547;SDS011;58099;43.406;3.698;2022-08-01T14:01:19;5.45;;;4.20;;
70547;SDS011;58099;43.406;3.698;2022-08-01T14:03:45;7.97;;;3.92;;
70547;SDS011;58099;43.406;3.698;2022-08-01T14:06:11;7.85;;;3.95;;
70547;SDS011;58099;43.406;3.698;2022-08-01T14:08:39;7.35;;;4.10;;
70547;SDS011;58099;43.406;3.698;2022-08-01T14:11:04;5.63;;;3.67;;
70547;SDS011;58099;43.406;3.698;2022-08-01T14:13:30;5.88;;;3.97;;
70547;SDS011;58099;43.406;3.698;2022-08-01T14:15:58;6.28;;;3.58;;
70547;SDS011;58099;43.406;3.698;2022-08-01T14:18:24;6.47;;;4.07;;
70547;SDS011;58099;43.406;3.698;2022-08-01T14:20:50;7.20;;;3.87;;
70547;SDS011;58099;43.406;3.698;2022-08-01T14:23:17;5.53;;;3.78;;
70547;SDS011;58099;43.406;3.698;2022-08-01T14:25:43;7.20;;;3.95;;
70547;SDS011;58099;43.406;3.698;2022-08-01T14:28:09;5.93;;;3.80;;
70547;SDS011;58099;43.406;3.698;2022-08-01T14:30:35;6.45;;;4.00;;
70547;SDS011;58099;43.406;3.698;2022-08-01T14:33:01;7.35;;;4.20;;
70547;SDS011;58099;43.406;3.698;2022-08-01T14:35:26;7.70;;;3.88;;
70547;SDS011;58099;43.406;3.698;2022-08-01T14:37:52;6.15;;;3.97;;
70547;SDS011;58099;43.406;3.698;2022-08-01T14:40:18;6.30;;;3.50;;
70547;SDS011;58099;43.406;3.698;2022-08-01T14:42:44;6.50;;;3.85;;
70547;SDS011;58099;43.406;3.698;2022-08-01T14:45:10;6.90;;;3.57;;
70547;SDS011;58099;43.406;3.698;2022-08-01T14:47:37;6.00;;;3.72;;
70547;SDS011;58099;43.406;3.698;2022-08-01T14:50:04;7.13;;;4.00;;
70547;SDS011;58099;43.406;3.698;2022-08-01T14:52:32;6.25;;;3.70;;
70547;SDS011;58099;43.406;3.698;2022-08-01T14:54:58;6.88;;;4.22;;
70547;SDS011;58099;43.406;3.698;2022-08-01T14:57:24;6.97;;;3.80;;
70547;SDS011;58099;43.406;3.698;2022-08-01T14:59:50;5.88;;;4.10;;
70547;SDS011;58099;43.406;3.698;2022-08-01T15:02:16;5.97;;;3.65;;
70547;SDS011;58099;43.406;3.698;2022-08-01T15:04:45;6.13;;;3.37;;
70547;SDS011;58099;43.406;3.698;2022-08-01T15:07:11;6.00;;;3.65;;
70547;SDS011;58099;43.406;3.698;2022-08-01T15:09:37;5.70;;;3.60;;
70547;SDS011;58099;43.406;3.698;2022-08-01T15:12:04;7.30;;;3.83;;
70547;SDS011;58099;43.406;3.698;2022-08-01T15:14:30;6.70;;;4.20;;
70547;SDS011;58099;43.406;3.698;2022-08-01T15:17:24;5.90;;;4.15;;
70547;SDS011;58099;43.406;3.698;2022-08-01T15:19:58;6.57;;;3.92;;
70547;SDS011;58099;43.406;3.698;2022-08-01T15:22:25;5.97;;;3.78;;
70547;SDS011;58099;43.406;3.698;2022-08-01T15:24:52;6.88;;;4.00;;
70547;SDS011;58099;43.406;3.698;2022-08-01T15:27:19;5.70;;;3.97;;
70547;SDS011;58099;43.406;3.698;2022-08-01T15:29:46;5.63;;;3.45;;